sensor_id;sensor_type;location;lat;lon;timestamp;P1;durP1;ratioP1;P2;durP2;ratioP2
26337;SDS011;14050;50.950;4.460;2023-02-28T00:02:45;11.98;;;6.10;;
26337;SDS011;14050;50.950;4.460;2023-02-28T00:07:47;11.95;;;6.40;;
26337;SDS011;14050;50.950;4.460;2023-02-28T00:12:48;11.07;;;6.10;;
26337;SDS011;14050;50.950;4.460;2023-02-28T00:17:49;15.90;;;6.57;;
26337;SDS011;14050;50.950;4.460;2023-02-28T00:22:50;14.40;;;6.50;;
26337;SDS011;14050;50.950;4.460;2023-02-28T00:27:51;13.65;;;6.50;;
26337;SDS011;14050;50.950;4.460;2023-02-28T00:32:51;14.57;;;6.57;;
26337;SDS011;14050;50.950;4.460;2023-02-28T00:37:52;14.53;;;6.07;;
26337;SDS011;14050;50.950;4.460;2023-02-28T00:42:52;12.82;;;6.93;;
26337;SDS011;14050;50.950;4.460;2023-02-28T00:47:52;13.80;;;6.37;;
26337;SDS011;14050;50.950;4.460;2023-02-28T00:52:53;11.50;;;6.50;;
26337;SDS011;14050;50.950;4.460;2023-02-28T00:57:53;12.80;;;6.97;;
26337;SDS011;14050;50.950;4.460;2023-02-28T01:02:53;14.48;;;7.15;;
26337;SDS011;14050;50.950;4.460;2023-02-28T01:07:53;19.08;;;7.68;;
26337;SDS011;14050;50.950;4.460;2023-02-28T01:12:54;12.40;;;7.53;;
26337;SDS011;14050;50.950;4.460;2023-02-28T01:17:54;13.50;;;6.97;;
26337;SDS011;14050;50.950;4.460;2023-02-28T01:22:54;11.82;;;7.65;;
26337;SDS011;14050;50.950;4.460;2023-02-28T01:27:56;13.93;;;7.50;;
26337;SDS011;14050;50.950;4.460;2023-02-28T01:32:56;14.80;;;7.93;;
26337;SDS011;14050;50.950;4.460;2023-02-28T01:37:56;11.47;;;7.33;;
26337;SDS011;14050;50.950;4.460;2023-02-28T01:42:57;13.43;;;7.70;;
26337;SDS011;14050;50.950;4.460;2023-02-28T01:48:02;14.07;;;8.00;;
26337;SDS011;14050;50.950;4.460;2023-02-28T01:53:04;12.70;;;7.90;;
26337;SDS011;14050;50.950;4.460;2023-02-28T01:58:06;16.35;;;8.82;;
26337;SDS011;14050;50.950;4.460;2023-02-28T02:03:08;14.57;;;8.48;;
26337;SDS011;14050;50.950;4.460;2023-02-28T02:08:10;18.75;;;9.02;;
26337;SDS011;14050;50.950;4.460;2023-02-28T02:23:30;13.40;;;8.77;;
26337;SDS011;14050;50.950;4.460;2023-02-28T02:49:21;13.60;;;8.65;;
26337;SDS011;14050;50.950;4.460;2023-02-28T02:54:25;16.13;;;10.18;;
26337;SDS011;14050;50.950;4.460;2023-02-28T02:59:29;17.52;;;9.38;;
26337;SDS011;14050;50.950;4.460;2023-02-28T03:04:31;19.98;;;10.68;;
26337;SDS011;14050;50.950;4.460;2023-02-28T03:09:33;20.33;;;10.25;;
26337;SDS011;14050;50.950;4.460;2023-02-28T03:35:25;14.63;;;10.57;;
26337;SDS011;14050;50.950;4.460;2023-02-28T03:40:28;16.92;;;10.77;;
26337;SDS011;14050;50.950;4.460;2023-02-28T03:45:31;19.73;;;11.30;;
26337;SDS011;14050;50.950;4.460;2023-02-28T03:50:34;18.73;;;10.38;;
26337;SDS011;14050;50.950;4.460;2023-02-28T03:55:46;16.83;;;10.85;;
26337;SDS011;14050;50.950;4.460;2023-02-28T04:00:49;15.52;;;11.57;;
26337;SDS011;14050;50.950;4.460;2023-02-28T04:05:51;16.88;;;11.13;;
26337;SDS011;14050;50.950;4.460;2023-02-28T04:11:04;15.38;;;11.07;;
26337;SDS011;14050;50.950;4.460;2023-02-28T04:16:07;17.95;;;11.73;;
26337;SDS011;14050;50.950;4.460;2023-02-28T04:21:12;17.13;;;11.10;;
26337;SDS011;14050;50.950;4.460;2023-02-28T04:26:12;20.65;;;11.95;;
26337;SDS011;14050;50.950;4.460;2023-02-28T04:31:12;22.75;;;11.60;;
26337;SDS011;14050;50.950;4.460;2023-02-28T04:36:12;18.25;;;11.68;;
26337;SDS011;14050;50.950;4.460;2023-02-28T04:41:14;16.15;;;11.55;;
26337;SDS011;14050;50.950;4.460;2023-02-28T04:46:15;13.45;;;10.60;;
26337;SDS011;14050;50.950;4.460;2023-02-28T04:51:16;15.45;;;11.38;;
26337;SDS011;14050;50.950;4.460;2023-02-28T04:56:17;15.63;;;10.27;;
26337;SDS011;14050;50.950;4.460;2023-02-28T05:01:31;16.00;;;10.85;;
26337;SDS011;14050;50.950;4.460;2023-02-28T05:06:32;21.83;;;11.20;;
26337;SDS011;14050;50.950;4.460;2023-02-28T05:11:34;18.40;;;9.90;;
26337;SDS011;14050;50.950;4.460;2023-02-28T05:16:38;20.05;;;11.45;;
26337;SDS011;14050;50.950;4.460;2023-02-28T05:21:57;17.63;;;10.50;;
26337;SDS011;14050;50.950;4.460;2023-02-28T05:26:57;16.00;;;10.38;;
26337;SDS011;14050;50.950;4.460;2023-02-28T05:31:58;19.70;;;10.40;;
26337;SDS011;14050;50.950;4.460;2023-02-28T05:36:58;16.52;;;10.70;;
26337;SDS011;14050;50.950;4.460;2023-02-28T05:41:58;17.37;;;10.30;;
26337;SDS011;14050;50.950;4.460;2023-02-28T05:46:59;18.50;;;10.20;;
26337;SDS011;14050;50.950;4.460;2023-02-28T05:51:59;15.57;;;10.23;;
26337;SDS011;14050;50.950;4.460;2023-02-28T05:56:59;18.20;;;9.95;;
26337;SDS011;14050;50.950;4.460;2023-02-28T06:01:59;15.03;;;10.10;;
26337;SDS011;14050;50.950;4.460;2023-02-28T06:07:00;16.02;;;9.77;;
26337;SDS011;14050;50.950;4.460;2023-02-28T06:12:04;20.10;;;10.40;;
26337;SDS011;14050;50.950;4.460;2023-02-28T06:17:05;14.60;;;10.50;;
26337;SDS011;14050;50.950;4.460;2023-02-28T06:22:05;19.15;;;10.43;;
26337;SDS011;14050;50.950;4.460;2023-02-28T06:27:06;20.40;;;9.95;;
26337;SDS011;14050;50.950;4.460;2023-02-28T06:32:06;20.23;;;9.83;;
26337;SDS011;14050;50.950;4.460;2023-02-28T06:37:06;18.73;;;11.00;;
26337;SDS011;14050;50.950;4.460;2023-02-28T06:42:06;15.23;;;9.98;;
26337;SDS011;14050;50.950;4.460;2023-02-28T06:47:07;20.50;;;9.98;;
26337;SDS011;14050;50.950;4.460;2023-02-28T06:52:07;20.70;;;10.18;;
26337;SDS011;14050;50.950;4.460;2023-02-28T06:57:08;21.00;;;9.95;;
26337;SDS011;14050;50.950;4.460;2023-02-28T07:02:09;17.85;;;9.52;;
26337;SDS011;14050;50.950;4.460;2023-02-28T07:07:09;14.30;;;9.27;;
26337;SDS011;14050;50.950;4.460;2023-02-28T07:12:09;15.50;;;8.88;;
26337;SDS011;14050;50.950;4.460;2023-02-28T07:17:10;17.08;;;9.35;;
26337;SDS011;14050;50.950;4.460;2023-02-28T07:22:11;15.57;;;9.13;;
26337;SDS011;14050;50.950;4.460;2023-02-28T07:27:12;15.70;;;9.38;;
26337;SDS011;14050;50.950;4.460;2023-02-28T07:32:12;21.52;;;9.43;;
26337;SDS011;14050;50.950;4.460;2023-02-28T07:37:12;18.13;;;9.48;;
26337;SDS011;14050;50.950;4.460;2023-02-28T07:42:12;20.98;;;9.80;;
26337;SDS011;14050;50.950;4.460;2023-02-28T07:47:13;15.38;;;8.85;;
26337;SDS011;14050;50.950;4.460;2023-02-28T07:52:13;14.20;;;8.65;;
26337;SDS011;14050;50.950;4.460;2023-02-28T07:57:13;11.93;;;7.95;;
26337;SDS011;14050;50.950;4.460;2023-02-28T08:02:14;17.73;;;7.47;;
26337;SDS011;14050;50.950;4.460;2023-02-28T08:07:14;16.20;;;7.90;;
26337;SDS011;14050;50.950;4.460;2023-02-28T08:12:15;11.93;;;7.00;;
26337;SDS011;14050;50.950;4.460;2023-02-28T08:17:15;9.23;;;6.32;;
26337;SDS011;14050;50.950;4.460;2023-02-28T08:22:16;12.07;;;5.75;;
26337;SDS011;14050;50.950;4.460;2023-02-28T08:27:16;9.07;;;5.23;;
26337;SDS011;14050;50.950;4.460;2023-02-28T08:32:17;9.38;;;4.85;;
26337;SDS011;14050;50.950;4.460;2023-02-28T08:37:17;8.75;;;4.60;;
26337;SDS011;14050;50.950;4.460;2023-02-28T08:42:17;7.32;;;4.22;;
26337;SDS011;14050;50.950;4.460;2023-02-28T08:47:18;11.80;;;4.60;;
26337;SDS011;14050;50.950;4.460;2023-02-28T08:52:18;8.43;;;4.22;;
26337;SDS011;14050;50.950;4.460;2023-02-28T08:57:18;10.35;;;4.18;;
26337;SDS011;14050;50.950;4.460;2023-02-28T09:02:19;7.40;;;4.10;;
26337;SDS011;14050;50.950;4.460;2023-02-28T09:07:19;16.00;;;6.32;;
26337;SDS011;14050;50.950;4.460;2023-02-28T09:12:23;8.68;;;5.68;;
26337;SDS011;14050;50.950;4.460;2023-02-28T09:17:24;4.95;;;3.30;;
26337;SDS011;14050;50.950;4.460;2023-02-28T09:22:24;5.93;;;3.90;;
26337;SDS011;14050;50.950;4.460;2023-02-28T09:27:25;4.63;;;2.90;;
26337;SDS011;14050;50.950;4.460;2023-02-28T09:32:25;6.55;;;3.10;;
26337;SDS011;14050;50.950;4.460;2023-02-28T09:37:25;6.25;;;3.75;;
26337;SDS011;14050;50.950;4.460;2023-02-28T09:42:32;6.68;;;3.50;;
26337;SDS011;14050;50.950;4.460;2023-02-28T09:47:34;7.00;;;3.47;;
26337;SDS011;14050;50.950;4.460;2023-02-28T09:52:36;7.63;;;3.67;;
26337;SDS011;14050;50.950;4.460;2023-02-28T09:57:37;4.93;;;2.92;;
26337;SDS011;14050;50.950;4.460;2023-02-28T10:08:18;4.55;;;2.72;;
26337;SDS011;14050;50.950;4.460;2023-02-28T10:18:23;5.53;;;3.28;;
26337;SDS011;14050;50.950;4.460;2023-02-28T10:23:34;5.53;;;2.72;;
26337;SDS011;14050;50.950;4.460;2023-02-28T10:28:35;6.18;;;2.55;;
26337;SDS011;14050;50.950;4.460;2023-02-28T10:33:35;4.57;;;2.70;;
26337;SDS011;14050;50.950;4.460;2023-02-28T10:38:37;5.28;;;2.50;;
26337;SDS011;14050;50.950;4.460;2023-02-28T10:43:38;3.45;;;2.20;;
26337;SDS011;14050;50.950;4.460;2023-02-28T10:48:44;6.00;;;3.00;;
26337;SDS011;14050;50.950;4.460;2023-02-28T10:53:47;3.85;;;2.88;;
26337;SDS011;14050;50.950;4.460;2023-02-28T10:58:52;5.30;;;2.60;;
26337;SDS011;14050;50.950;4.460;2023-02-28T11:03:53;9.85;;;2.60;;
26337;SDS011;14050;50.950;4.460;2023-02-28T11:08:54;3.70;;;2.03;;
26337;SDS011;14050;50.950;4.460;2023-02-28T11:14:02;4.13;;;2.53;;
26337;SDS011;14050;50.950;4.460;2023-02-28T11:24:04;4.93;;;2.45;;
26337;SDS011;14050;50.950;4.460;2023-02-28T11:29:17;5.60;;;2.95;;
26337;SDS011;14050;50.950;4.460;2023-02-28T11:34:23;4.05;;;2.78;;
26337;SDS011;14050;50.950;4.460;2023-02-28T11:39:23;4.80;;;3.35;;
26337;SDS011;14050;50.950;4.460;2023-02-28T11:49:50;7.35;;;2.90;;
26337;SDS011;14050;50.950;4.460;2023-02-28T11:54:59;8.52;;;3.22;;
26337;SDS011;14050;50.950;4.460;2023-02-28T12:00:16;5.65;;;2.42;;
26337;SDS011;14050;50.950;4.460;2023-02-28T12:10:26;6.68;;;3.28;;
26337;SDS011;14050;50.950;4.460;2023-02-28T12:30:53;5.70;;;2.60;;
26337;SDS011;14050;50.950;4.460;2023-02-28T12:35:57;19.70;;;8.63;;
26337;SDS011;14050;50.950;4.460;2023-02-28T12:46:02;6.50;;;4.05;;
26337;SDS011;14050;50.950;4.460;2023-02-28T12:51:05;3.20;;;2.20;;
26337;SDS011;14050;50.950;4.460;2023-02-28T12:56:12;4.65;;;2.42;;
26337;SDS011;14050;50.950;4.460;2023-02-28T13:16:49;3.47;;;2.65;;
26337;SDS011;14050;50.950;4.460;2023-02-28T13:21:50;6.70;;;3.20;;
26337;SDS011;14050;50.950;4.460;2023-02-28T13:47:28;3.60;;;2.60;;
26337;SDS011;14050;50.950;4.460;2023-02-28T13:52:29;5.75;;;2.60;;
26337;SDS011;14050;50.950;4.460;2023-02-28T13:57:44;5.10;;;2.73;;
26337;SDS011;14050;50.950;4.460;2023-02-28T14:08:11;12.70;;;3.70;;
26337;SDS011;14050;50.950;4.460;2023-02-28T14:18:31;3.92;;;2.67;;
26337;SDS011;14050;50.950;4.460;2023-02-28T14:39:14;5.07;;;3.10;;
26337;SDS011;14050;50.950;4.460;2023-02-28T14:44:16;6.35;;;2.95;;
26337;SDS011;14050;50.950;4.460;2023-02-28T14:54:19;6.13;;;3.13;;
26337;SDS011;14050;50.950;4.460;2023-02-28T14:59:28;5.47;;;2.88;;
26337;SDS011;14050;50.950;4.460;2023-02-28T15:04:29;4.38;;;2.83;;
26337;SDS011;14050;50.950;4.460;2023-02-28T15:09:33;7.40;;;3.55;;
26337;SDS011;14050;50.950;4.460;2023-02-28T15:14:33;4.07;;;2.83;;
26337;SDS011;14050;50.950;4.460;2023-02-28T15:19:36;11.35;;;2.97;;
26337;SDS011;14050;50.950;4.460;2023-02-28T15:24:43;5.40;;;4.32;;
26337;SDS011;14050;50.950;4.460;2023-02-28T15:29:47;3.97;;;3.25;;
26337;SDS011;14050;50.950;4.460;2023-02-28T15:34:49;3.97;;;3.45;;
26337;SDS011;14050;50.950;4.460;2023-02-28T15:39:49;8.00;;;6.28;;
26337;SDS011;14050;50.950;4.460;2023-02-28T15:44:49;10.18;;;4.75;;
26337;SDS011;14050;50.950;4.460;2023-02-28T15:49:54;4.70;;;2.92;;
26337;SDS011;14050;50.950;4.460;2023-02-28T15:54:55;5.38;;;3.38;;
26337;SDS011;14050;50.950;4.460;2023-02-28T15:59:56;4.53;;;3.50;;
26337;SDS011;14050;50.950;4.460;2023-02-28T16:05:01;7.43;;;4.40;;
26337;SDS011;14050;50.950;4.460;2023-02-28T16:10:02;5.65;;;2.42;;
26337;SDS011;14050;50.950;4.460;2023-02-28T16:15:06;4.18;;;2.92;;
26337;SDS011;14050;50.950;4.460;2023-02-28T16:20:23;5.43;;;3.40;;
26337;SDS011;14050;50.950;4.460;2023-02-28T16:25:29;3.92;;;3.10;;
26337;SDS011;14050;50.950;4.460;2023-02-28T16:30:33;7.38;;;3.72;;
26337;SDS011;14050;50.950;4.460;2023-02-28T16:35:33;4.70;;;3.30;;
26337;SDS011;14050;50.950;4.460;2023-02-28T16:40:35;5.40;;;3.33;;
26337;SDS011;14050;50.950;4.460;2023-02-28T16:45:35;5.72;;;3.45;;
26337;SDS011;14050;50.950;4.460;2023-02-28T16:50:36;10.52;;;3.45;;
26337;SDS011;14050;50.950;4.460;2023-02-28T16:55:36;5.78;;;3.60;;
26337;SDS011;14050;50.950;4.460;2023-02-28T17:00:37;9.80;;;3.63;;
26337;SDS011;14050;50.950;4.460;2023-02-28T17:05:37;7.15;;;3.30;;
26337;SDS011;14050;50.950;4.460;2023-02-28T17:10:39;7.88;;;3.92;;
26337;SDS011;14050;50.950;4.460;2023-02-28T17:15:39;6.85;;;3.22;;
26337;SDS011;14050;50.950;4.460;2023-02-28T17:20:40;5.53;;;3.67;;
26337;SDS011;14050;50.950;4.460;2023-02-28T17:25:42;5.43;;;3.47;;
26337;SDS011;14050;50.950;4.460;2023-02-28T17:30:53;20.25;;;5.72;;
26337;SDS011;14050;50.950;4.460;2023-02-28T17:35:54;13.95;;;5.32;;
26337;SDS011;14050;50.950;4.460;2023-02-28T17:40:54;11.47;;;6.27;;
26337;SDS011;14050;50.950;4.460;2023-02-28T17:45:57;8.98;;;4.90;;
26337;SDS011;14050;50.950;4.460;2023-02-28T17:50:58;9.93;;;5.40;;
26337;SDS011;14050;50.950;4.460;2023-02-28T17:55:58;9.57;;;6.47;;
26337;SDS011;14050;50.950;4.460;2023-02-28T18:00:59;12.88;;;5.95;;
26337;SDS011;14050;50.950;4.460;2023-02-28T18:06:00;8.73;;;4.53;;
26337;SDS011;14050;50.950;4.460;2023-02-28T18:11:00;7.10;;;3.67;;
26337;SDS011;14050;50.950;4.460;2023-02-28T18:16:01;8.65;;;4.45;;
26337;SDS011;14050;50.950;4.460;2023-02-28T18:21:01;12.05;;;6.70;;
26337;SDS011;14050;50.950;4.460;2023-02-28T18:26:06;9.57;;;5.18;;
26337;SDS011;14050;50.950;4.460;2023-02-28T18:31:08;11.93;;;5.72;;
26337;SDS011;14050;50.950;4.460;2023-02-28T18:36:08;9.05;;;5.10;;
26337;SDS011;14050;50.950;4.460;2023-02-28T18:41:09;18.42;;;8.35;;
26337;SDS011;14050;50.950;4.460;2023-02-28T18:46:12;10.10;;;6.72;;
26337;SDS011;14050;50.950;4.460;2023-02-28T18:51:17;10.48;;;6.00;;
26337;SDS011;14050;50.950;4.460;2023-02-28T18:56:19;15.40;;;6.75;;
26337;SDS011;14050;50.950;4.460;2023-02-28T19:01:21;10.63;;;6.45;;
26337;SDS011;14050;50.950;4.460;2023-02-28T19:06:21;15.05;;;8.68;;
26337;SDS011;14050;50.950;4.460;2023-02-28T19:11:22;16.92;;;7.70;;
26337;SDS011;14050;50.950;4.460;2023-02-28T19:16:23;14.15;;;6.95;;
26337;SDS011;14050;50.950;4.460;2023-02-28T19:21:24;11.10;;;6.75;;
26337;SDS011;14050;50.950;4.460;2023-02-28T19:26:26;12.90;;;6.88;;
26337;SDS011;14050;50.950;4.460;2023-02-28T19:31:26;14.75;;;8.45;;
26337;SDS011;14050;50.950;4.460;2023-02-28T19:36:27;30.55;;;16.00;;
26337;SDS011;14050;50.950;4.460;2023-02-28T19:41:28;26.85;;;13.95;;
26337;SDS011;14050;50.950;4.460;2023-02-28T19:46:29;39.53;;;19.73;;
26337;SDS011;14050;50.950;4.460;2023-02-28T19:51:29;34.40;;;18.08;;
26337;SDS011;14050;50.950;4.460;2023-02-28T19:56:29;27.95;;;16.60;;
26337;SDS011;14050;50.950;4.460;2023-02-28T20:01:29;30.85;;;17.02;;
26337;SDS011;14050;50.950;4.460;2023-02-28T20:06:31;24.08;;;16.10;;
26337;SDS011;14050;50.950;4.460;2023-02-28T20:11:31;23.38;;;15.52;;
26337;SDS011;14050;50.950;4.460;2023-02-28T20:16:31;26.38;;;15.95;;
26337;SDS011;14050;50.950;4.460;2023-02-28T20:21:32;16.25;;;11.40;;
26337;SDS011;14050;50.950;4.460;2023-02-28T20:26:32;26.23;;;14.55;;
26337;SDS011;14050;50.950;4.460;2023-02-28T20:31:32;22.23;;;14.83;;
26337;SDS011;14050;50.950;4.460;2023-02-28T20:36:33;23.23;;;12.15;;
26337;SDS011;14050;50.950;4.460;2023-02-28T20:41:33;16.63;;;9.82;;
26337;SDS011;14050;50.950;4.460;2023-02-28T20:46:33;15.57;;;9.77;;
26337;SDS011;14050;50.950;4.460;2023-02-28T20:51:34;15.40;;;8.80;;
26337;SDS011;14050;50.950;4.460;2023-02-28T20:56:39;15.43;;;8.55;;
26337;SDS011;14050;50.950;4.460;2023-02-28T21:01:39;14.93;;;9.03;;
26337;SDS011;14050;50.950;4.460;2023-02-28T21:06:41;12.32;;;8.90;;
26337;SDS011;14050;50.950;4.460;2023-02-28T21:11:42;12.23;;;8.57;;
26337;SDS011;14050;50.950;4.460;2023-02-28T21:16:43;13.48;;;9.00;;
26337;SDS011;14050;50.950;4.460;2023-02-28T21:21:43;13.35;;;9.75;;
26337;SDS011;14050;50.950;4.460;2023-02-28T21:26:45;11.57;;;8.02;;
26337;SDS011;14050;50.950;4.460;2023-02-28T21:31:48;16.27;;;9.05;;
26337;SDS011;14050;50.950;4.460;2023-02-28T21:36:49;17.40;;;11.23;;
26337;SDS011;14050;50.950;4.460;2023-02-28T21:41:49;21.40;;;12.63;;
26337;SDS011;14050;50.950;4.460;2023-02-28T21:46:50;22.70;;;12.50;;
26337;SDS011;14050;50.950;4.460;2023-02-28T21:51:55;19.85;;;12.68;;
26337;SDS011;14050;50.950;4.460;2023-02-28T21:56:56;26.33;;;14.65;;
26337;SDS011;14050;50.950;4.460;2023-02-28T22:01:56;25.10;;;13.65;;
26337;SDS011;14050;50.950;4.460;2023-02-28T22:06:56;22.13;;;14.07;;
26337;SDS011;14050;50.950;4.460;2023-02-28T22:11:57;20.70;;;12.45;;
26337;SDS011;14050;50.950;4.460;2023-02-28T22:16:57;19.13;;;11.00;;
26337;SDS011;14050;50.950;4.460;2023-02-28T22:21:57;14.57;;;10.45;;
26337;SDS011;14050;50.950;4.460;2023-02-28T22:26:58;16.00;;;10.25;;
26337;SDS011;14050;50.950;4.460;2023-02-28T22:31:59;17.35;;;10.93;;
26337;SDS011;14050;50.950;4.460;2023-02-28T22:36:59;17.08;;;10.20;;
26337;SDS011;14050;50.950;4.460;2023-02-28T22:41:59;17.05;;;10.65;;
26337;SDS011;14050;50.950;4.460;2023-02-28T22:47:00;21.90;;;12.25;;
26337;SDS011;14050;50.950;4.460;2023-02-28T22:52:00;18.10;;;12.15;;
26337;SDS011;14050;50.950;4.460;2023-02-28T22:57:00;17.48;;;10.68;;
26337;SDS011;14050;50.950;4.460;2023-02-28T23:02:00;19.77;;;10.95;;
26337;SDS011;14050;50.950;4.460;2023-02-28T23:07:01;18.15;;;10.73;;
26337;SDS011;14050;50.950;4.460;2023-02-28T23:12:01;15.48;;;10.25;;
26337;SDS011;14050;50.950;4.460;2023-02-28T23:17:01;17.40;;;10.30;;
26337;SDS011;14050;50.950;4.460;2023-02-28T23:22:02;17.52;;;9.88;;
26337;SDS011;14050;50.950;4.460;2023-02-28T23:27:04;13.45;;;9.15;;
26337;SDS011;14050;50.950;4.460;2023-02-28T23:32:04;15.73;;;9.32;;
26337;SDS011;14050;50.950;4.460;2023-02-28T23:37:04;15.63;;;10.35;;
26337;SDS011;14050;50.950;4.460;2023-02-28T23:42:04;16.83;;;9.27;;
26337;SDS011;14050;50.950;4.460;2023-02-28T23:47:05;16.50;;;9.80;;
26337;SDS011;14050;50.950;4.460;2023-02-28T23:52:05;16.40;;;8.93;;
26337;SDS011;14050;50.950;4.460;2023-02-28T23:57:05;15.55;;;9.93;;
